Buoy 44845

sailwx.info

Track history (hours):
 
Tides and Currents Weather Stations Pressure Air Temp Water Temp Dewpoint Dewpoint Depression Visibility Wind Speed Wind Dir Waves Ship Positions

Drifting buoy 44845

Last reported at 2015-Mar-28 10:01 UTC. Time now 2015-Mar-28 11:04 UTC.
Position N 72°44' E 004°11'.

Water temperature 3.3 ° C

Date/timePositionNaut miles runAvg speedWind from/ knotsBaromVisibWave heightAir tempDewpointWater temp
2015-Mar-28 10:01N 72°44' E 004°11'0 0.2 3.3
2015-Mar-28 09:01N 72°44' E 004°11'0 0.2 3.2
2015-Mar-28 08:01N 72°44' E 004°11'0 0.2 3.2
2015-Mar-28 07:01N 72°44' E 004°10'0 0.3 3.2
2015-Mar-28 06:01N 72°44' E 004°09'0 0.3 3.2
2015-Mar-28 05:01N 72°43' E 004°08'0 0.3 3.2
2015-Mar-28 04:01N 72°43' E 004°07'0 0.4 3.2
2015-Mar-28 03:01N 72°43' E 004°06'0 0.4 3.1
2015-Mar-28 02:01N 72°43' E 004°05'0 0.4 3.2
2015-Mar-28 01:01N 72°43' E 004°03'0 0.3 3.2
2015-Mar-28 00:01N 72°43' E 004°02'0 0.2 3.3
2015-Mar-27 23:01N 72°43' E 004°02'0 0.1 3.4
2015-Mar-27 22:01N 72°43' E 004°01'0 0.3 3.4
2015-Mar-27 21:01N 72°43' E 004°01'0 0.3 3.4
2015-Mar-27 20:01N 72°44' E 003°60'0 0.5 3.4
2015-Mar-27 19:01N 72°44' E 003°59'0 0.5 3.5
2015-Mar-27 18:01N 72°44' E 003°57'0 0.4 3.6
2015-Mar-27 17:01N 72°44' E 003°56'0 0.4 3.7
2015-Mar-27 16:01N 72°44' E 003°55'0 0.1 3.7
2015-Mar-27 15:01N 72°44' E 003°54'0 0.1 3.7
2015-Mar-27 14:01N 72°44' E 003°54'0 0.1 3.7
2015-Mar-27 13:01N 72°44' E 003°54'0 0.1 3.7
2015-Mar-27 12:01N 72°44' E 003°54'0 0.1 3.7
2015-Mar-27 11:01N 72°44' E 003°53'0 0.1 3.7
2015-Mar-27 10:01N 72°44' E 003°53'0 0.1 3.7
2015-Mar-27 09:01N 72°44' E 003°53'0 0.2 3.7
2015-Mar-27 08:01N 72°44' E 003°53'1 0.5 3.5
2015-Mar-27 06:01N 72°43' E 003°54'1 0.7 3.1
2015-Mar-27 05:01N 72°42' E 003°56'0 0.4 3.1
2015-Mar-27 04:01N 72°42' E 003°56'1 0.5 2.6
2015-Mar-27 03:01N 72°42' E 003°55'1 0.7 2.6
2015-Mar-27 02:01N 72°41' E 003°53'1 0.7 2.8
2015-Mar-27 01:01N 72°41' E 003°51'1 0.7 2.9
2015-Mar-27 00:01N 72°40' E 003°50'1 0.6 3.0
2015-Mar-26 23:01N 72°40' E 003°48'1 0.6 3.1
2015-Mar-26 22:01N 72°39' E 003°46'1 0.6 3.1
2015-Mar-26 21:01N 72°39' E 003°45'1 0.6 3.1
2015-Mar-26 20:01N 72°38' E 003°44'1 0.5 3.2
2015-Mar-26 19:01N 72°38' E 003°43'0 0.5 3.1
2015-Mar-26 18:01N 72°38' E 003°42'0 0.4 3.1
2015-Mar-26 17:01N 72°37' E 003°41'0 0.4 3.2
2015-Mar-26 16:01N 72°37' E 003°41'0 0.4 3.2
2015-Mar-26 15:01N 72°37' E 003°39'0 0.5 3.2
2015-Mar-26 14:01N 72°36' E 003°38'1 0.5 3.2
2015-Mar-26 13:01N 72°36' E 003°37'1 0.6 3.2
2015-Mar-26 12:01N 72°35' E 003°36'1 0.6 3.2
2015-Mar-26 11:01N 72°35' E 003°34'1 0.7 3.2
2015-Mar-26 10:01N 72°34' E 003°33'1 0.7 3.2
2015-Mar-26 09:01N 72°34' E 003°32'1 0.8 3.2
2015-Mar-26 08:01N 72°33' E 003°30'1 0.7 3.2
2015-Mar-26 07:01N 72°32' E 003°29'1 0.8 3.2
2015-Mar-26 06:01N 72°32' E 003°28'1 0.8 3.2
2015-Mar-26 05:01N 72°31' E 003°27'1 0.8 3.3
2015-Mar-26 04:01N 72°30' E 003°26'1 0.9 3.1
2015-Mar-26 03:01N 72°30' E 003°24'1 1.0 3.3
2015-Mar-26 02:02N 72°29' E 003°22'2 0.8 3.3
2015-Mar-26 00:01N 72°28' E 003°18'1 1.0 3.3
2015-Mar-25 23:01N 72°27' E 003°16'1 1.0 3.3
2015-Mar-25 22:01N 72°26' E 003°13'1 1.2 3.4
2015-Mar-25 21:01N 72°25' E 003°11'1 1.4 3.6
2015-Mar-25 20:01N 72°24' E 003°10'1 1.3 4.2
2015-Mar-25 19:01N 72°22' E 003°09'1 1.1 4.2
2015-Mar-25 18:01N 72°21' E 003°08'1 0.8 4.1
2015-Mar-25 17:01N 72°20' E 003°08'1 0.8 4.0
2015-Mar-25 16:01N 72°20' E 003°09'1 0.8 4.1
2015-Mar-25 15:01N 72°19' E 003°09'1 0.7 4.3
2015-Mar-25 14:01N 72°18' E 003°09'1 0.7 4.3
2015-Mar-25 12:01N 72°17' E 003°08'1 0.7 4.3
2015-Mar-25 11:01N 72°16' E 003°08'1 0.7 4.2
2015-Mar-25 10:01N 72°15' E 003°08'1 0.6 4.1
2015-Mar-25 09:01N 72°15' E 003°09'1 0.5 4.0
2015-Mar-25 08:01N 72°14' E 003°09'1 0.5 4.0
2015-Mar-25 07:01N 72°14' E 003°11'0 0.4 4.0
2015-Mar-25 06:01N 72°14' E 003°12'0 0.2 4.0
2015-Mar-25 05:01N 72°14' E 003°13'0 0.2 3.8
2015-Mar-25 04:01N 72°14' E 003°13'0 0.1 3.6
2015-Mar-25 03:01N 72°14' E 003°13'0 0.1 3.4
2015-Mar-25 00:01N 72°13' E 003°14'0 0.1 3.0
2015-Mar-24 23:01N 72°13' E 003°14'0 0.1 3.0
2015-Mar-24 22:01N 72°13' E 003°13'0 0.1 3.0
2015-Mar-24 21:01N 72°13' E 003°13'0 0.2 3.0
2015-Mar-24 20:01N 72°13' E 003°12'0 0.2 3.1
2015-Mar-24 18:01N 72°13' E 003°11'0 0.2 3.2
2015-Mar-24 17:01N 72°13' E 003°11'0 0.2 3.2
2015-Mar-24 16:01N 72°13' E 003°10'0 0.2 3.1
2015-Mar-24 15:01N 72°13' E 003°10'0 0.2 3.1
2015-Mar-24 14:01N 72°13' E 003°09'0 0.1 3.0
2015-Mar-24 13:01N 72°13' E 003°09'0 0.1 3.0
2015-Mar-24 11:01N 72°13' E 003°09'0 0.1 3.0
2015-Mar-24 10:01N 72°13' E 003°09'0 0.1 3.0
2015-Mar-24 09:01N 72°13' E 003°08'0 0.1 3.0
2015-Mar-24 08:01N 72°13' E 003°08'0 0.1 3.0
2015-Mar-24 07:01N 72°13' E 003°08'0 0.1 3.0
2015-Mar-24 06:01N 72°13' E 003°08'0 0.2 2.9
2015-Mar-24 05:01N 72°13' E 003°08'0 0.3 3.0
2015-Mar-24 04:01N 72°13' E 003°09'0 0.3 3.0
2015-Mar-24 03:01N 72°13' E 003°10'0 0.3 3.0
2015-Mar-24 02:01N 72°13' E 003°11'0 0.2 3.0
2015-Mar-24 01:01N 72°13' E 003°11'0 0.1 3.0
2015-Mar-24 00:01N 72°13' E 003°12'0 0.1 3.0
2015-Mar-23 23:01N 72°13' E 003°12'0 0.1 3.1
2015-Mar-23 22:01N 72°13' E 003°12'0 0.2 3.1
2015-Mar-23 21:01N 72°12' E 003°13'0 0.3 3.1
2015-Mar-23 20:01N 72°12' E 003°14'0 0.4 3.1
2015-Mar-23 19:01N 72°12' E 003°15'0 0.4 3.1
2015-Mar-23 18:01N 72°12' E 003°16'0 0.5 3.1
2015-Mar-23 17:01N 72°12' E 003°18'0 0.5 3.1
2015-Mar-23 16:01N 72°12' E 003°19'1 0.5 3.1
2015-Mar-23 15:01N 72°12' E 003°21'1 0.6 3.1
2015-Mar-23 14:01N 72°12' E 003°23'1 0.6 3.2
2015-Mar-23 13:01N 72°12' E 003°25'1 0.7 3.2
2015-Mar-23 12:01N 72°12' E 003°27'1 0.8 3.2
2015-Mar-23 11:01N 72°12' E 003°29'1 0.8 3.2
2015-Mar-23 10:01N 72°12' E 003°32'2 1.6 3.1
2015-Mar-23 09:01N 72°11' E 003°37'0 0.0 3.2
2015-Mar-23 08:01N 72°11' E 003°37'1 0.8 3.3
2015-Mar-23 07:01N 72°11' E 003°40'1 1.0 3.4
2015-Mar-23 06:01N 72°11' E 003°43'1 1.0 3.6
2015-Mar-23 05:01N 72°10' E 003°46'1 1.1 3.6
2015-Mar-23 04:01N 72°10' E 003°49'1 1.1 3.5
2015-Mar-23 03:01N 72°10' E 003°52'1 1.3 3.6
2015-Mar-23 02:01N 72°09' E 003°56'1 1.4 3.7
2015-Mar-23 01:01N 72°09' E 004°01'1 1.5 4.0
2015-Mar-23 00:01N 72°08' E 004°05'1 1.0 4.3
2015-Mar-22 23:01N 72°07' E 004°06'1 1.1 4.4
2015-Mar-22 22:01N 72°06' E 004°05'1 1.4 4.6
2015-Mar-22 21:01N 72°05' E 004°02'2 1.6 4.7
2015-Mar-22 20:01N 72°04' E 003°58'2 1.7 4.7
2015-Mar-22 19:01N 72°03' E 003°53'2 1.6 4.8
2015-Mar-22 18:01N 72°02' E 003°49'2 1.6 4.8
2015-Mar-22 17:01N 72°01' E 003°44'2 1.7 4.9
2015-Mar-22 16:01N 72°01' E 003°39'2 1.7 5.0
2015-Mar-22 15:01N 71°60' E 003°35'2 1.6 5.0
2015-Mar-22 14:01N 71°59' E 003°30'2 1.6 5.0
2015-Mar-22 13:01N 71°58' E 003°26'2 1.5 5.0
2015-Mar-22 12:01N 71°57' E 003°21'1 1.5 5.0
2015-Mar-22 11:01N 71°57' E 003°17'1 1.4 5.0
2015-Mar-22 10:01N 71°56' E 003°13'1 1.4 5.0
2015-Mar-22 09:01N 71°56' E 003°09'4 1.3 5.0
2015-Mar-22 06:01N 71°54' E 002°57'1 1.0 4.7
2015-Mar-22 05:01N 71°54' E 002°54'1 0.9 4.7
2015-Mar-22 04:01N 71°54' E 002°51'1 0.9 4.7
2015-Mar-22 03:01N 71°54' E 002°48'1 0.9 4.7
2015-Mar-22 02:01N 71°54' E 002°45'1 0.8 4.7
2015-Mar-22 01:01N 71°54' E 002°42'1 0.8 4.7
2015-Mar-22 00:01N 71°54' E 002°40'1 0.8 4.7
2015-Mar-21 23:01N 71°54' E 002°38'1 0.8 4.7
2015-Mar-21 22:01N 71°53' E 002°35'1 0.8 4.7
2015-Mar-21 21:01N 71°53' E 002°33'1 0.8 4.7
2015-Mar-21 20:01N 71°53' E 002°30'1 1.0 4.7
2015-Mar-21 19:01N 71°52' E 002°28'1 0.9 4.7
2015-Mar-21 18:01N 71°51' E 002°26'1 0.9 4.8
2015-Mar-21 17:01N 71°51' E 002°23'1 0.9 4.9
2015-Mar-21 16:01N 71°50' E 002°21'1 0.8 4.8
2015-Mar-21 15:01N 71°50' E 002°19'1 0.8 4.8
2015-Mar-21 14:01N 71°49' E 002°17'1 0.9 4.8
2015-Mar-21 13:01N 71°49' E 002°14'1 1.0 4.8
2015-Mar-21 12:01N 71°49' E 002°11'1 1.2 4.8
2015-Mar-21 11:01N 71°48' E 002°08'1 1.1 4.9
2015-Mar-21 10:01N 71°47' E 002°05'1 1.0 4.9
2015-Mar-21 09:01N 71°47' E 002°02'1 1.1 4.9
2015-Mar-21 08:01N 71°46' E 001°59'1 1.1 4.9
2015-Mar-21 07:01N 71°46' E 001°57'1 1.0 5.0
2015-Mar-21 06:01N 71°45' E 001°54'1 1.0 5.0
2015-Mar-21 05:01N 71°45' E 001°51'1 1.1 5.0
2015-Mar-21 04:01N 71°44' E 001°48'1 1.0 5.0
2015-Mar-21 03:01N 71°43' E 001°45'1 1.0 5.0
2015-Mar-21 02:01N 71°43' E 001°43'1 0.8 5.0
2015-Mar-21 01:01N 71°42' E 001°41'1 0.7 5.0
2015-Mar-21 00:01N 71°42' E 001°39'1 0.7 5.0
2015-Mar-20 23:01N 71°42' E 001°37'1 0.7 5.0
2015-Mar-20 22:01N 71°42' E 001°35'1 0.6 5.0
2015-Mar-20 21:01N 71°41' E 001°33'1 0.7 4.9
2015-Mar-20 20:01N 71°41' E 001°31'1 0.7 5.0
2015-Mar-20 19:01N 71°41' E 001°28'1 0.8 4.9
2015-Mar-20 18:01N 71°42' E 001°26'1 0.8 5.0
2015-Mar-20 17:01N 71°41' E 001°23'1 0.8 4.9
2015-Mar-20 16:01N 71°41' E 001°20'1 0.8 4.9
2015-Mar-20 15:01N 71°41' E 001°18'1 0.7 4.8
2015-Mar-20 14:01N 71°41' E 001°16'1 0.7 4.8
2015-Mar-20 13:01N 71°41' E 001°14'1 1.3 4.8
2015-Mar-20 12:01N 71°42' E 001°09'0 0.0 4.8
2015-Mar-20 11:01N 71°42' E 001°09'1 0.7 4.7
2015-Mar-20 10:01N 71°42' E 001°07'1 0.7 4.8
2015-Mar-20 09:01N 71°42' E 001°05'1 0.8 4.8
2015-Mar-20 08:01N 71°42' E 001°02'1 0.8 4.8
2015-Mar-20 07:01N 71°42' E 000°60'1 0.9 4.7
2015-Mar-20 06:01N 71°42' E 000°57'1 0.9 4.7
2015-Mar-20 05:01N 71°42' E 000°54'1 0.9 4.7
2015-Mar-20 04:01N 71°42' E 000°51'1 0.9 4.7
2015-Mar-20 03:01N 71°43' E 000°48'1 0.9 4.6
2015-Mar-20 02:01N 71°43' E 000°46'1 0.8 4.7
2015-Mar-20 01:01N 71°43' E 000°43'1 0.9 4.7
2015-Mar-20 00:01N 71°43' E 000°40'1 1.0 4.7
2015-Mar-19 23:01N 71°44' E 000°37'1 1.1 4.6
2015-Mar-19 22:01N 71°44' E 000°34'1 1.0 4.6
2015-Mar-19 21:01N 71°44' E 000°31'1 1.1 4.5
2015-Mar-19 20:01N 71°45' E 000°28'2 1.1 4.5
2015-Mar-19 18:01N 71°45' E 000°21'1 1.1 4.2
2015-Mar-19 17:01N 71°46' E 000°18'1 1.0 3.9
2015-Mar-19 16:01N 71°46' E 000°15'1 0.8 3.0
2015-Mar-19 15:01N 71°47' E 000°14'1 0.8 3.0
2015-Mar-19 14:01N 71°48' E 000°14'1 0.6 3.1
2015-Mar-19 13:01N 71°49' E 000°14'1 0.5 3.2
2015-Mar-19 12:01N 71°49' E 000°14'0 0.4 3.2
2015-Mar-19 11:01N 71°50' E 000°13'0 0.4 3.2
2015-Mar-19 10:01N 71°50' E 000°13'0 0.3 3.3
2015-Mar-19 09:01N 71°50' E 000°13'0 0.4 3.2
2015-Mar-19 08:01N 71°51' E 000°13'0 0.4 3.2
2015-Mar-19 07:01N 71°51' E 000°14'1 0.5 3.2
2015-Mar-19 06:01N 71°51' E 000°14'1 0.7 3.2
2015-Mar-19 05:01N 71°52' E 000°15'1 0.7 3.2
2015-Mar-19 04:01N 71°53' E 000°16'1 0.8 3.3
2015-Mar-19 03:01N 71°53' E 000°17'1 0.7 3.3
2015-Mar-19 02:01N 71°54' E 000°17'0 0.4 3.3
2015-Mar-19 01:01N 71°54' E 000°16'0 0.4 3.3
2015-Mar-19 00:01N 71°55' E 000°15'0 0.2 3.3
2015-Mar-18 23:01N 71°55' E 000°14'0 0.2 3.2
2015-Mar-18 22:01N 71°55' E 000°14'0 0.2 3.2
2015-Mar-18 21:01N 71°55' E 000°13'0 0.1 3.2
2015-Mar-18 20:01N 71°55' E 000°13'0 0.1 2.6
2015-Mar-18 19:01N 71°55' E 000°13'0 0.2 2.5
2015-Mar-18 18:01N 71°55' E 000°13'0 0.3 2.4
2015-Mar-18 17:01N 71°55' E 000°13'0 0.3 2.3
2015-Mar-18 16:01N 71°55' E 000°12'0 0.4 2.3
2015-Mar-18 15:01N 71°56' E 000°12'0 0.4 2.2
2015-Mar-18 14:01N 71°56' E 000°12'0 0.4 2.2
2015-Mar-18 13:01N 71°57' E 000°12'0 0.2 2.3
2015-Mar-18 12:01N 71°57' E 000°11'0 0.1 2.3
2015-Mar-18 11:01N 71°57' E 000°11'0 0.1 2.5
2015-Mar-18 10:01N 71°57' E 000°11'   2.3
Track history (hours):
 
Tides and Currents Weather Stations Pressure Air Temp Water Temp Dewpoint Dewpoint Depression Visibility Wind Speed Wind Dir Waves Ship Positions

Drifting buoy 44845

Last reported at 2015-Mar-28 10:01 UTC. Time now 2015-Mar-28 11:04 UTC.
Position N 72°44' E 004°11'.

Water temperature 3.3 ° C

Date/timePositionNaut miles runAvg speedWind from/ knotsBaromVisibWave heightAir tempDewpointWater temp
2015-Mar-28 10:01N 72°44' E 004°11'0 0.2 3.3
2015-Mar-28 09:01N 72°44' E 004°11'0 0.2 3.2
2015-Mar-28 08:01N 72°44' E 004°11'0 0.2 3.2
2015-Mar-28 07:01N 72°44' E 004°10'0 0.3 3.2
2015-Mar-28 06:01N 72°44' E 004°09'0 0.3 3.2
2015-Mar-28 05:01N 72°43' E 004°08'0 0.3 3.2
2015-Mar-28 04:01N 72°43' E 004°07'0 0.4 3.2
2015-Mar-28 03:01N 72°43' E 004°06'0 0.4 3.1
2015-Mar-28 02:01N 72°43' E 004°05'0 0.4 3.2
2015-Mar-28 01:01N 72°43' E 004°03'0 0.3 3.2
2015-Mar-28 00:01N 72°43' E 004°02'0 0.2 3.3
2015-Mar-27 23:01N 72°43' E 004°02'0 0.1 3.4
2015-Mar-27 22:01N 72°43' E 004°01'0 0.3 3.4
2015-Mar-27 21:01N 72°43' E 004°01'0 0.3 3.4
2015-Mar-27 20:01N 72°44' E 003°60'0 0.5 3.4
2015-Mar-27 19:01N 72°44' E 003°59'0 0.5 3.5
2015-Mar-27 18:01N 72°44' E 003°57'0 0.4 3.6
2015-Mar-27 17:01N 72°44' E 003°56'0 0.4 3.7
2015-Mar-27 16:01N 72°44' E 003°55'0 0.1 3.7
2015-Mar-27 15:01N 72°44' E 003°54'0 0.1 3.7
2015-Mar-27 14:01N 72°44' E 003°54'0 0.1 3.7
2015-Mar-27 13:01N 72°44' E 003°54'0 0.1 3.7
2015-Mar-27 12:01N 72°44' E 003°54'0 0.1 3.7
2015-Mar-27 11:01N 72°44' E 003°53'0 0.1 3.7
2015-Mar-27 10:01N 72°44' E 003°53'0 0.1 3.7
2015-Mar-27 09:01N 72°44' E 003°53'0 0.2 3.7
2015-Mar-27 08:01N 72°44' E 003°53'1 0.5 3.5
2015-Mar-27 06:01N 72°43' E 003°54'1 0.7 3.1
2015-Mar-27 05:01N 72°42' E 003°56'0 0.4 3.1
2015-Mar-27 04:01N 72°42' E 003°56'1 0.5 2.6
2015-Mar-27 03:01N 72°42' E 003°55'1 0.7 2.6
2015-Mar-27 02:01N 72°41' E 003°53'1 0.7 2.8
2015-Mar-27 01:01N 72°41' E 003°51'1 0.7 2.9
2015-Mar-27 00:01N 72°40' E 003°50'1 0.6 3.0
2015-Mar-26 23:01N 72°40' E 003°48'1 0.6 3.1
2015-Mar-26 22:01N 72°39' E 003°46'1 0.6 3.1
2015-Mar-26 21:01N 72°39' E 003°45'1 0.6 3.1
2015-Mar-26 20:01N 72°38' E 003°44'1 0.5 3.2
2015-Mar-26 19:01N 72°38' E 003°43'0 0.5 3.1
2015-Mar-26 18:01N 72°38' E 003°42'0 0.4 3.1
2015-Mar-26 17:01N 72°37' E 003°41'0 0.4 3.2
2015-Mar-26 16:01N 72°37' E 003°41'0 0.4 3.2
2015-Mar-26 15:01N 72°37' E 003°39'0 0.5 3.2
2015-Mar-26 14:01N 72°36' E 003°38'1 0.5 3.2
2015-Mar-26 13:01N 72°36' E 003°37'1 0.6 3.2
2015-Mar-26 12:01N 72°35' E 003°36'1 0.6 3.2
2015-Mar-26 11:01N 72°35' E 003°34'1 0.7 3.2
2015-Mar-26 10:01N 72°34' E 003°33'1 0.7 3.2
2015-Mar-26 09:01N 72°34' E 003°32'1 0.8 3.2
2015-Mar-26 08:01N 72°33' E 003°30'1 0.7 3.2
2015-Mar-26 07:01N 72°32' E 003°29'1 0.8 3.2
2015-Mar-26 06:01N 72°32' E 003°28'1 0.8 3.2
2015-Mar-26 05:01N 72°31' E 003°27'1 0.8 3.3
2015-Mar-26 04:01N 72°30' E 003°26'1 0.9 3.1
2015-Mar-26 03:01N 72°30' E 003°24'1 1.0 3.3
2015-Mar-26 02:02N 72°29' E 003°22'2 0.8 3.3
2015-Mar-26 00:01N 72°28' E 003°18'1 1.0 3.3
2015-Mar-25 23:01N 72°27' E 003°16'1 1.0 3.3
2015-Mar-25 22:01N 72°26' E 003°13'1 1.2 3.4
2015-Mar-25 21:01N 72°25' E 003°11'1 1.4 3.6
2015-Mar-25 20:01N 72°24' E 003°10'1 1.3 4.2
2015-Mar-25 19:01N 72°22' E 003°09'1 1.1 4.2
2015-Mar-25 18:01N 72°21' E 003°08'1 0.8 4.1
2015-Mar-25 17:01N 72°20' E 003°08'1 0.8 4.0
2015-Mar-25 16:01N 72°20' E 003°09'1 0.8 4.1
2015-Mar-25 15:01N 72°19' E 003°09'1 0.7 4.3
2015-Mar-25 14:01N 72°18' E 003°09'1 0.7 4.3
2015-Mar-25 12:01N 72°17' E 003°08'1 0.7 4.3
2015-Mar-25 11:01N 72°16' E 003°08'1 0.7 4.2
2015-Mar-25 10:01N 72°15' E 003°08'1 0.6 4.1
2015-Mar-25 09:01N 72°15' E 003°09'1 0.5 4.0
2015-Mar-25 08:01N 72°14' E 003°09'1 0.5 4.0
2015-Mar-25 07:01N 72°14' E 003°11'0 0.4 4.0
2015-Mar-25 06:01N 72°14' E 003°12'0 0.2 4.0
2015-Mar-25 05:01N 72°14' E 003°13'0 0.2 3.8
2015-Mar-25 04:01N 72°14' E 003°13'0 0.1 3.6
2015-Mar-25 03:01N 72°14' E 003°13'0 0.1 3.4
2015-Mar-25 00:01N 72°13' E 003°14'0 0.1 3.0
2015-Mar-24 23:01N 72°13' E 003°14'0 0.1 3.0
2015-Mar-24 22:01N 72°13' E 003°13'0 0.1 3.0
2015-Mar-24 21:01N 72°13' E 003°13'0 0.2 3.0
2015-Mar-24 20:01N 72°13' E 003°12'0 0.2 3.1
2015-Mar-24 18:01N 72°13' E 003°11'0 0.2 3.2
2015-Mar-24 17:01N 72°13' E 003°11'0 0.2 3.2
2015-Mar-24 16:01N 72°13' E 003°10'0 0.2 3.1
2015-Mar-24 15:01N 72°13' E 003°10'0 0.2 3.1
2015-Mar-24 14:01N 72°13' E 003°09'0 0.1 3.0
2015-Mar-24 13:01N 72°13' E 003°09'0 0.1 3.0
2015-Mar-24 11:01N 72°13' E 003°09'0 0.1 3.0
2015-Mar-24 10:01N 72°13' E 003°09'0 0.1 3.0
2015-Mar-24 09:01N 72°13' E 003°08'0 0.1 3.0
2015-Mar-24 08:01N 72°13' E 003°08'0 0.1 3.0
2015-Mar-24 07:01N 72°13' E 003°08'0 0.1 3.0
2015-Mar-24 06:01N 72°13' E 003°08'0 0.2 2.9
2015-Mar-24 05:01N 72°13' E 003°08'0 0.3 3.0
2015-Mar-24 04:01N 72°13' E 003°09'0 0.3 3.0
2015-Mar-24 03:01N 72°13' E 003°10'0 0.3 3.0
2015-Mar-24 02:01N 72°13' E 003°11'0 0.2 3.0
2015-Mar-24 01:01N 72°13' E 003°11'0 0.1 3.0
2015-Mar-24 00:01N 72°13' E 003°12'0 0.1 3.0
2015-Mar-23 23:01N 72°13' E 003°12'0 0.1 3.1
2015-Mar-23 22:01N 72°13' E 003°12'0 0.2 3.1
2015-Mar-23 21:01N 72°12' E 003°13'0 0.3 3.1
2015-Mar-23 20:01N 72°12' E 003°14'0 0.4 3.1
2015-Mar-23 19:01N 72°12' E 003°15'0 0.4 3.1
2015-Mar-23 18:01N 72°12' E 003°16'0 0.5 3.1
2015-Mar-23 17:01N 72°12' E 003°18'0 0.5 3.1
2015-Mar-23 16:01N 72°12' E 003°19'1 0.5 3.1
2015-Mar-23 15:01N 72°12' E 003°21'1 0.6 3.1
2015-Mar-23 14:01N 72°12' E 003°23'1 0.6 3.2
2015-Mar-23 13:01N 72°12' E 003°25'1 0.7 3.2
2015-Mar-23 12:01N 72°12' E 003°27'1 0.8 3.2
2015-Mar-23 11:01N 72°12' E 003°29'1 0.8 3.2
2015-Mar-23 10:01N 72°12' E 003°32'2 1.6 3.1
2015-Mar-23 09:01N 72°11' E 003°37'0 0.0 3.2
2015-Mar-23 08:01N 72°11' E 003°37'1 0.8 3.3
2015-Mar-23 07:01N 72°11' E 003°40'1 1.0 3.4
2015-Mar-23 06:01N 72°11' E 003°43'1 1.0 3.6
2015-Mar-23 05:01N 72°10' E 003°46'1 1.1 3.6
2015-Mar-23 04:01N 72°10' E 003°49'1 1.1 3.5
2015-Mar-23 03:01N 72°10' E 003°52'1 1.3 3.6
2015-Mar-23 02:01N 72°09' E 003°56'1 1.4 3.7
2015-Mar-23 01:01N 72°09' E 004°01'1 1.5 4.0
2015-Mar-23 00:01N 72°08' E 004°05'1 1.0 4.3
2015-Mar-22 23:01N 72°07' E 004°06'1 1.1 4.4
2015-Mar-22 22:01N 72°06' E 004°05'1 1.4 4.6
2015-Mar-22 21:01N 72°05' E 004°02'2 1.6 4.7
2015-Mar-22 20:01N 72°04' E 003°58'2 1.7 4.7
2015-Mar-22 19:01N 72°03' E 003°53'2 1.6 4.8
2015-Mar-22 18:01N 72°02' E 003°49'2 1.6 4.8
2015-Mar-22 17:01N 72°01' E 003°44'2 1.7 4.9
2015-Mar-22 16:01N 72°01' E 003°39'2 1.7 5.0
2015-Mar-22 15:01N 71°60' E 003°35'2 1.6 5.0
2015-Mar-22 14:01N 71°59' E 003°30'2 1.6 5.0
2015-Mar-22 13:01N 71°58' E 003°26'2 1.5 5.0
2015-Mar-22 12:01N 71°57' E 003°21'1 1.5 5.0
2015-Mar-22 11:01N 71°57' E 003°17'1 1.4 5.0
2015-Mar-22 10:01N 71°56' E 003°13'1 1.4 5.0
2015-Mar-22 09:01N 71°56' E 003°09'4 1.3 5.0
2015-Mar-22 06:01N 71°54' E 002°57'1 1.0 4.7
2015-Mar-22 05:01N 71°54' E 002°54'1 0.9 4.7
2015-Mar-22 04:01N 71°54' E 002°51'1 0.9 4.7
2015-Mar-22 03:01N 71°54' E 002°48'1 0.9 4.7
2015-Mar-22 02:01N 71°54' E 002°45'1 0.8 4.7
2015-Mar-22 01:01N 71°54' E 002°42'1 0.8 4.7
2015-Mar-22 00:01N 71°54' E 002°40'1 0.8 4.7
2015-Mar-21 23:01N 71°54' E 002°38'1 0.8 4.7
2015-Mar-21 22:01N 71°53' E 002°35'1 0.8 4.7
2015-Mar-21 21:01N 71°53' E 002°33'1 0.8 4.7
2015-Mar-21 20:01N 71°53' E 002°30'1 1.0 4.7
2015-Mar-21 19:01N 71°52' E 002°28'1 0.9 4.7
2015-Mar-21 18:01N 71°51' E 002°26'1 0.9 4.8
2015-Mar-21 17:01N 71°51' E 002°23'1 0.9 4.9
2015-Mar-21 16:01N 71°50' E 002°21'1 0.8 4.8
2015-Mar-21 15:01N 71°50' E 002°19'1 0.8 4.8
2015-Mar-21 14:01N 71°49' E 002°17'1 0.9 4.8
2015-Mar-21 13:01N 71°49' E 002°14'1 1.0 4.8
2015-Mar-21 12:01N 71°49' E 002°11'1 1.2 4.8
2015-Mar-21 11:01N 71°48' E 002°08'1 1.1 4.9
2015-Mar-21 10:01N 71°47' E 002°05'1 1.0 4.9
2015-Mar-21 09:01N 71°47' E 002°02'1 1.1 4.9
2015-Mar-21 08:01N 71°46' E 001°59'1 1.1 4.9
2015-Mar-21 07:01N 71°46' E 001°57'1 1.0 5.0
2015-Mar-21 06:01N 71°45' E 001°54'1 1.0 5.0
2015-Mar-21 05:01N 71°45' E 001°51'1 1.1 5.0
2015-Mar-21 04:01N 71°44' E 001°48'1 1.0 5.0
2015-Mar-21 03:01N 71°43' E 001°45'1 1.0 5.0
2015-Mar-21 02:01N 71°43' E 001°43'1 0.8 5.0
2015-Mar-21 01:01N 71°42' E 001°41'1 0.7 5.0
2015-Mar-21 00:01N 71°42' E 001°39'1 0.7 5.0
2015-Mar-20 23:01N 71°42' E 001°37'1 0.7 5.0
2015-Mar-20 22:01N 71°42' E 001°35'1 0.6 5.0
2015-Mar-20 21:01N 71°41' E 001°33'1 0.7 4.9
2015-Mar-20 20:01N 71°41' E 001°31'1 0.7 5.0
2015-Mar-20 19:01N 71°41' E 001°28'1 0.8 4.9
2015-Mar-20 18:01N 71°42' E 001°26'1 0.8 5.0
2015-Mar-20 17:01N 71°41' E 001°23'1 0.8 4.9
2015-Mar-20 16:01N 71°41' E 001°20'1 0.8 4.9
2015-Mar-20 15:01N 71°41' E 001°18'1 0.7 4.8
2015-Mar-20 14:01N 71°41' E 001°16'1 0.7 4.8
2015-Mar-20 13:01N 71°41' E 001°14'1 1.3 4.8
2015-Mar-20 12:01N 71°42' E 001°09'0 0.0 4.8
2015-Mar-20 11:01N 71°42' E 001°09'1 0.7 4.7
2015-Mar-20 10:01N 71°42' E 001°07'1 0.7 4.8
2015-Mar-20 09:01N 71°42' E 001°05'1 0.8 4.8
2015-Mar-20 08:01N 71°42' E 001°02'1 0.8 4.8
2015-Mar-20 07:01N 71°42' E 000°60'1 0.9 4.7
2015-Mar-20 06:01N 71°42' E 000°57'1 0.9 4.7
2015-Mar-20 05:01N 71°42' E 000°54'1 0.9 4.7
2015-Mar-20 04:01N 71°42' E 000°51'1 0.9 4.7
2015-Mar-20 03:01N 71°43' E 000°48'1 0.9 4.6
2015-Mar-20 02:01N 71°43' E 000°46'1 0.8 4.7
2015-Mar-20 01:01N 71°43' E 000°43'1 0.9 4.7
2015-Mar-20 00:01N 71°43' E 000°40'1 1.0 4.7
2015-Mar-19 23:01N 71°44' E 000°37'1 1.1 4.6
2015-Mar-19 22:01N 71°44' E 000°34'1 1.0 4.6
2015-Mar-19 21:01N 71°44' E 000°31'1 1.1 4.5
2015-Mar-19 20:01N 71°45' E 000°28'2 1.1 4.5
2015-Mar-19 18:01N 71°45' E 000°21'1 1.1 4.2
2015-Mar-19 17:01N 71°46' E 000°18'1 1.0 3.9
2015-Mar-19 16:01N 71°46' E 000°15'1 0.8 3.0
2015-Mar-19 15:01N 71°47' E 000°14'1 0.8 3.0
2015-Mar-19 14:01N 71°48' E 000°14'1 0.6 3.1
2015-Mar-19 13:01N 71°49' E 000°14'1 0.5 3.2
2015-Mar-19 12:01N 71°49' E 000°14'0 0.4 3.2
2015-Mar-19 11:01N 71°50' E 000°13'0 0.4 3.2
2015-Mar-19 10:01N 71°50' E 000°13'0 0.3 3.3
2015-Mar-19 09:01N 71°50' E 000°13'0 0.4 3.2
2015-Mar-19 08:01N 71°51' E 000°13'0 0.4 3.2
2015-Mar-19 07:01N 71°51' E 000°14'1 0.5 3.2
2015-Mar-19 06:01N 71°51' E 000°14'1 0.7 3.2
2015-Mar-19 05:01N 71°52' E 000°15'1 0.7 3.2
2015-Mar-19 04:01N 71°53' E 000°16'1 0.8 3.3
2015-Mar-19 03:01N 71°53' E 000°17'1 0.7 3.3
2015-Mar-19 02:01N 71°54' E 000°17'0 0.4 3.3
2015-Mar-19 01:01N 71°54' E 000°16'0 0.4 3.3
2015-Mar-19 00:01N 71°55' E 000°15'0 0.2 3.3
2015-Mar-18 23:01N 71°55' E 000°14'0 0.2 3.2
2015-Mar-18 22:01N 71°55' E 000°14'0 0.2 3.2
2015-Mar-18 21:01N 71°55' E 000°13'0 0.1 3.2
2015-Mar-18 20:01N 71°55' E 000°13'0 0.1 2.6
2015-Mar-18 19:01N 71°55' E 000°13'0 0.2 2.5
2015-Mar-18 18:01N 71°55' E 000°13'0 0.3 2.4
2015-Mar-18 17:01N 71°55' E 000°13'0 0.3 2.3
2015-Mar-18 16:01N 71°55' E 000°12'0 0.4 2.3
2015-Mar-18 15:01N 71°56' E 000°12'0 0.4 2.2
2015-Mar-18 14:01N 71°56' E 000°12'0 0.4 2.2
2015-Mar-18 13:01N 71°57' E 000°12'0 0.2 2.3
2015-Mar-18 12:01N 71°57' E 000°11'0 0.1 2.3
2015-Mar-18 11:01N 71°57' E 000°11'0 0.1 2.5
2015-Mar-18 10:01N 71°57' E 000°11'   2.3

Dump ship's entire track history